Time;durP1;ratioP1;P1;durP2;ratioP2;P2;SDS_P1;SDS_P2;PMS_P1;PMS_P2;Temp;Humidity;BMP_temperature;BMP_pressure;BME280_temperature;BME280_humidity;BME280_pressure;Samples;Min_cycle;Max_cycle;Signal;HPM_P1;HPM_P2
2023/07/19 00:01:57;;;;;;;6.68;5.57;;;19.30;99.90;;;;;;5030362;28;20189;-30
2023/07/19 00:04:24;;;;;;;8.25;5.90;;;19.20;99.90;;;;;;5049106;28;20273;-31
2023/07/19 00:06:50;;;;;;;7.30;6.10;;;19.20;99.90;;;;;;5055414;28;20183;-30
2023/07/19 00:09:16;;;;;;;9.73;5.93;;;19.20;99.90;;;;;;5065542;28;20209;-31
2023/07/19 00:11:42;;;;;;;7.05;5.80;;;19.10;99.90;;;;;;5031373;28;20233;-30
2023/07/19 00:14:08;;;;;;;7.75;5.90;;;19.10;99.90;;;;;;5050901;28;20198;-30
2023/07/19 00:16:34;;;;;;;10.30;6.03;;;19.10;99.90;;;;;;5051061;28;20205;-30
2023/07/19 00:19:00;;;;;;;9.98;5.78;;;19.10;99.90;;;;;;5051227;28;20208;-30
2023/07/19 00:21:26;;;;;;;7.93;6.28;;;19.10;99.90;;;;;;5048723;28;20212;-30
2023/07/19 00:23:52;;;;;;;7.22;6.10;;;19.00;99.90;;;;;;5048259;28;20205;-30
2023/07/19 00:26:18;;;;;;;8.65;5.88;;;19.10;99.90;;;;;;5049623;28;20210;-30
2023/07/19 00:28:44;;;;;;;7.50;5.50;;;19.10;99.90;;;;;;5068948;28;20213;-30
2023/07/19 00:31:10;;;;;;;7.32;5.72;;;19.10;99.90;;;;;;5043226;28;20202;-30
2023/07/19 00:33:36;;;;;;;8.48;5.55;;;19.10;99.90;;;;;;5047850;28;20186;-30
2023/07/19 00:36:02;;;;;;;8.52;5.93;;;19.10;99.90;;;;;;5052254;28;20174;-30
2023/07/19 00:38:28;;;;;;;8.27;5.82;;;19.10;99.90;;;;;;5052044;28;20205;-30
2023/07/19 00:40:54;;;;;;;12.07;6.45;;;19.00;99.90;;;;;;5054026;28;20178;-29
2023/07/19 00:43:20;;;;;;;11.60;6.47;;;19.00;99.90;;;;;;5048925;28;20182;-30
2023/07/19 00:45:51;;;;;;;9.15;5.53;;;18.90;99.90;;;;;;5049647;28;20178;-29
2023/07/19 00:48:18;;;;;;;5.95;5.35;;;18.80;99.90;;;;;;5064623;28;20202;-30
2023/07/19 00:50:44;;;;;;;13.32;6.53;;;18.80;99.90;;;;;;5035592;28;20178;-30
2023/07/19 00:53:11;;;;;;;6.70;5.38;;;18.70;99.90;;;;;;5038295;28;20178;-30
2023/07/19 00:55:38;;;;;;;7.43;6.20;;;18.70;99.90;;;;;;5051563;28;20201;-29
2023/07/19 00:58:05;;;;;;;8.55;6.18;;;18.60;99.90;;;;;;5051831;28;20202;-29
2023/07/19 01:00:31;;;;;;;8.18;6.10;;;18.50;99.90;;;;;;5051710;28;20177;-29
2023/07/19 01:02:59;;;;;;;10.00;6.45;;;18.50;99.90;;;;;;5051478;28;20190;-30
2023/07/19 01:05:26;;;;;;;8.20;5.68;;;18.40;99.90;;;;;;5052000;28;20185;-29
2023/07/19 01:07:53;;;;;;;9.38;6.40;;;18.40;99.90;;;;;;5051369;28;20178;-30
2023/07/19 01:10:23;;;;;;;7.93;6.13;;;18.40;99.90;;;;;;5051862;28;20217;-29
2023/07/19 01:13:05;;;;;;;9.75;6.80;;;18.40;99.90;;;;;;5067275;28;20238;-29
2023/07/19 01:15:31;;;;;;;10.05;6.45;;;18.40;99.90;;;;;;5044589;28;20220;-31
2023/07/19 01:17:57;;;;;;;9.45;6.18;;;18.40;99.90;;;;;;5051532;28;20197;-30
2023/07/19 01:20:23;;;;;;;7.50;6.60;;;18.30;99.90;;;;;;5051810;28;20182;-30
2023/07/19 01:22:49;;;;;;;10.13;5.75;;;18.30;99.90;;;;;;5051078;28;20277;-30
2023/07/19 01:25:14;;;;;;;8.48;6.03;;;18.30;99.90;;;;;;5051647;28;20196;-30
2023/07/19 01:27:40;;;;;;;10.25;6.25;;;18.30;99.90;;;;;;5051015;28;20182;-30
2023/07/19 01:30:07;;;;;;;9.65;6.47;;;18.30;99.90;;;;;;5051334;28;20190;-30
2023/07/19 01:32:33;;;;;;;7.53;5.50;;;18.30;99.90;;;;;;5051081;28;20209;-31
2023/07/19 01:34:59;;;;;;;7.10;5.57;;;18.40;99.90;;;;;;5051498;28;20232;-31
2023/07/19 01:37:26;;;;;;;8.88;6.22;;;18.30;99.90;;;;;;5050582;28;20193;-30
2023/07/19 01:39:52;;;;;;;8.63;6.03;;;18.30;99.90;;;;;;5051177;28;20201;-31
2023/07/19 01:42:18;;;;;;;9.30;6.03;;;18.30;99.90;;;;;;5051292;28;20196;-30
2023/07/19 01:44:44;;;;;;;10.32;6.60;;;18.30;99.90;;;;;;5051079;28;20190;-31
2023/07/19 01:47:09;;;;;;;7.47;5.68;;;18.30;99.90;;;;;;5050271;28;20224;-30
2023/07/19 01:49:37;;;;;;;8.18;6.40;;;18.30;99.90;;;;;;5033117;28;20205;-30
2023/07/19 01:52:04;;;;;;;7.40;6.03;;;18.30;99.90;;;;;;5035075;28;20292;-30
2023/07/19 01:54:29;;;;;;;10.05;6.05;;;18.30;99.90;;;;;;5067804;28;20246;-30
2023/07/19 01:56:55;;;;;;;8.98;6.20;;;18.30;99.90;;;;;;5033987;28;20272;-30
2023/07/19 01:59:21;;;;;;;6.68;5.25;;;18.30;99.90;;;;;;5039764;28;20204;-30
2023/07/19 02:01:47;;;;;;;10.35;5.88;;;18.20;99.90;;;;;;5048435;28;20272;-30
2023/07/19 02:04:13;;;;;;;7.63;6.05;;;18.20;99.90;;;;;;5066893;28;20182;-30
2023/07/19 02:06:40;;;;;;;6.70;5.82;;;18.20;99.90;;;;;;5050467;28;20185;-31
2023/07/19 02:09:05;;;;;;;7.95;5.85;;;18.20;99.90;;;;;;5050579;28;20263;-30
2023/07/19 02:11:34;;;;;;;6.68;5.78;;;18.20;99.90;;;;;;5050482;28;20201;-30
2023/07/19 02:14:00;;;;;;;7.32;5.60;;;18.30;99.90;;;;;;5050203;28;20185;-29
2023/07/19 02:16:26;;;;;;;8.77;6.10;;;18.20;99.90;;;;;;5063963;28;20252;-30
2023/07/19 02:18:52;;;;;;;9.35;6.15;;;18.30;99.90;;;;;;5066107;28;20194;-30
2023/07/19 02:21:18;;;;;;;10.40;6.10;;;18.30;99.90;;;;;;5046638;28;20186;-30
2023/07/19 02:23:45;;;;;;;10.95;5.95;;;18.30;99.90;;;;;;5047197;28;20189;-31
2023/07/19 02:26:11;;;;;;;9.20;5.65;;;18.20;99.90;;;;;;5049700;28;20190;-30
2023/07/19 02:28:37;;;;;;;8.65;6.00;;;18.20;99.90;;;;;;5039998;28;20198;-30
2023/07/19 02:31:03;;;;;;;6.28;5.43;;;18.20;99.90;;;;;;5049931;28;20189;-30
2023/07/19 02:33:29;;;;;;;7.60;5.90;;;18.20;99.90;;;;;;5050242;28;20253;-30
2023/07/19 02:35:56;;;;;;;9.77;5.90;;;18.10;99.90;;;;;;5049471;28;20247;-30
2023/07/19 02:38:22;;;;;;;9.13;5.82;;;18.10;99.90;;;;;;5049809;28;20206;-30
2023/07/19 02:40:48;;;;;;;8.70;6.28;;;18.00;99.90;;;;;;5041303;28;20177;-29
2023/07/19 02:43:14;;;;;;;10.63;6.00;;;18.00;99.90;;;;;;5049454;28;20193;-31
2023/07/19 02:45:42;;;;;;;8.85;6.32;;;17.90;99.90;;;;;;5050074;28;20193;-30
2023/07/19 02:48:08;;;;;;;11.30;5.60;;;17.80;99.90;;;;;;5049844;28;20209;-30
2023/07/19 02:50:34;;;;;;;9.05;6.00;;;17.70;99.90;;;;;;5029596;28;20179;-31
2023/07/19 02:53:00;;;;;;;9.90;6.30;;;17.60;99.90;;;;;;5066070;28;20283;-29
2023/07/19 02:55:25;;;;;;;10.35;6.40;;;17.50;99.90;;;;;;5048573;28;20214;-30
2023/07/19 02:57:52;;;;;;;8.65;5.93;;;17.40;99.90;;;;;;5049108;28;20182;-30
2023/07/19 03:00:18;;;;;;;9.10;6.32;;;17.30;99.90;;;;;;5049678;28;20182;-30
2023/07/19 03:02:46;;;;;;;10.38;6.32;;;17.40;99.90;;;;;;5042920;28;20185;-29
2023/07/19 03:05:12;;;;;;;11.18;6.53;;;17.40;99.90;;;;;;5047998;28;20220;-31
2023/07/19 03:07:38;;;;;;;12.77;7.35;;;17.40;99.90;;;;;;5050576;28;20185;-30
2023/07/19 03:10:04;;;;;;;12.27;6.45;;;17.40;99.90;;;;;;5051484;28;20182;-30
2023/07/19 03:12:30;;;;;;;10.95;7.05;;;17.40;99.90;;;;;;5063173;28;20213;-29
2023/07/19 03:14:56;;;;;;;9.43;6.78;;;17.40;99.90;;;;;;5048160;28;20205;-31
2023/07/19 03:17:22;;;;;;;10.13;6.88;;;17.40;99.90;;;;;;5049837;28;20261;-30
2023/07/19 03:19:48;;;;;;;12.02;7.03;;;17.40;99.90;;;;;;5049214;28;20225;-30
2023/07/19 03:22:14;;;;;;;11.85;6.80;;;17.40;99.90;;;;;;5049027;28;20239;-30
2023/07/19 03:24:40;;;;;;;12.48;6.15;;;17.30;99.90;;;;;;5062659;28;20269;-32
2023/07/19 03:27:06;;;;;;;14.50;6.60;;;17.20;99.90;;;;;;5032604;28;20271;-31
2023/07/19 03:29:32;;;;;;;9.63;6.28;;;17.10;99.90;;;;;;5049189;28;20208;-31
2023/07/19 03:31:57;;;;;;;15.03;6.73;;;17.10;99.90;;;;;;5043798;28;20216;-31
2023/07/19 03:34:23;;;;;;;10.60;6.00;;;17.10;99.90;;;;;;5029027;28;20174;-31
2023/07/19 03:36:49;;;;;;;7.60;5.43;;;17.20;99.90;;;;;;5063542;28;20182;-30
2023/07/19 03:39:15;;;;;;;9.63;5.72;;;17.20;99.90;;;;;;5037823;28;20247;-30
2023/07/19 03:41:41;;;;;;;8.80;5.93;;;17.20;99.90;;;;;;5049713;28;20182;-30
2023/07/19 03:44:08;;;;;;;12.00;6.30;;;17.30;99.90;;;;;;5050479;28;20182;-30
2023/07/19 03:46:34;;;;;;;9.23;6.35;;;17.20;99.90;;;;;;5052395;28;20276;-30
2023/07/19 03:49:01;;;;;;;10.03;5.50;;;17.30;99.90;;;;;;5033485;28;20263;-30
2023/07/19 03:51:27;;;;;;;11.27;5.90;;;17.20;99.90;;;;;;5053155;28;20289;-30
2023/07/19 03:53:53;;;;;;;12.13;6.23;;;17.20;99.90;;;;;;5049278;28;20182;-30
2023/07/19 03:56:21;;;;;;;11.10;5.75;;;17.10;99.90;;;;;;5048907;28;20174;-31
2023/07/19 03:58:49;;;;;;;10.60;5.70;;;17.10;99.90;;;;;;5048857;28;20201;-30
2023/07/19 04:01:16;;;;;;;12.25;6.57;;;17.20;99.90;;;;;;5051276;28;20185;-29
2023/07/19 04:03:43;;;;;;;10.57;5.78;;;17.20;99.90;;;;;;5055998;28;20199;-31
2023/07/19 04:06:09;;;;;;;10.98;6.07;;;17.20;99.90;;;;;;5069709;28;20205;-30
2023/07/19 04:08:35;;;;;;;10.23;5.78;;;17.20;99.90;;;;;;5039260;28;20199;-30
2023/07/19 04:11:02;;;;;;;12.65;6.15;;;17.20;99.90;;;;;;5035659;28;20179;-30
2023/07/19 04:13:28;;;;;;;11.38;6.40;;;17.20;99.90;;;;;;5054339;28;20294;-30
2023/07/19 04:15:54;;;;;;;9.95;6.05;;;17.20;99.90;;;;;;5055372;28;20197;-30
2023/07/19 04:18:21;;;;;;;8.57;5.88;;;17.20;99.90;;;;;;5054970;28;20202;-29
2023/07/19 04:20:59;;;;;;;8.45;5.55;;;17.30;99.90;;;;;;5055252;28;20182;-30
2023/07/19 04:23:26;;;;;;;11.23;5.90;;;17.30;99.90;;;;;;5055022;28;20269;-30
2023/07/19 04:25:53;;;;;;;12.73;6.57;;;17.20;99.90;;;;;;5054687;28;20182;-30
2023/07/19 04:28:20;;;;;;;15.73;6.63;;;17.30;99.90;;;;;;5054582;28;20206;-30
2023/07/19 04:30:46;;;;;;;7.00;6.10;;;17.20;99.90;;;;;;5054825;28;20181;-30
2023/07/19 04:33:15;;;;;;;12.95;6.78;;;17.30;99.90;;;;;;5054473;28;20212;-30
2023/07/19 04:35:41;;;;;;;9.90;6.07;;;17.30;99.90;;;;;;5054561;28;20260;-30
2023/07/19 04:38:07;;;;;;;12.38;6.03;;;17.30;99.90;;;;;;5054111;28;20212;-30
2023/07/19 04:40:33;;;;;;;10.07;5.97;;;17.40;99.90;;;;;;5054797;28;20170;-28
2023/07/19 04:43:01;;;;;;;8.77;6.22;;;17.40;99.90;;;;;;5054501;28;20182;-29
2023/07/19 04:45:27;;;;;;;9.23;5.85;;;17.60;99.90;;;;;;5054050;28;20178;-31
2023/07/19 04:47:53;;;;;;;9.88;6.38;;;17.60;99.90;;;;;;5036434;28;20183;-30
2023/07/19 04:50:20;;;;;;;8.20;5.47;;;17.50;99.90;;;;;;5038245;28;20208;-30
2023/07/19 04:52:48;;;;;;;9.75;6.63;;;17.50;99.90;;;;;;5056842;28;20206;-30
2023/07/19 04:55:14;;;;;;;9.90;5.95;;;17.60;99.90;;;;;;5050058;28;20319;-30
2023/07/19 04:57:41;;;;;;;9.52;6.97;;;17.60;99.90;;;;;;5060865;28;20198;-31
2023/07/19 05:00:11;;;;;;;9.60;6.20;;;17.70;99.90;;;;;;5036187;28;20174;-30
2023/07/19 05:02:39;;;;;;;8.13;6.00;;;17.80;99.90;;;;;;5034852;28;20204;-30
2023/07/19 05:05:05;;;;;;;12.10;6.63;;;17.80;99.90;;;;;;5035217;28;20189;-29
2023/07/19 05:07:34;;;;;;;10.68;6.45;;;17.90;99.90;;;;;;5035850;28;20170;-30
2023/07/19 05:10:02;;;;;;;8.52;5.85;;;18.00;99.90;;;;;;5016260;28;20198;-31
2023/07/19 05:12:30;;;;;;;10.60;6.07;;;18.10;99.90;;;;;;5055353;28;20220;-31
2023/07/19 05:14:56;;;;;;;10.52;6.35;;;18.10;99.90;;;;;;5051827;28;20201;-31
2023/07/19 05:17:22;;;;;;;7.05;5.88;;;18.10;99.90;;;;;;5035027;28;20178;-29
2023/07/19 05:19:48;;;;;;;8.88;5.47;;;18.20;99.90;;;;;;5035576;28;20243;-30
2023/07/19 05:22:14;;;;;;;8.32;6.07;;;18.30;99.90;;;;;;5051431;28;20177;-30
2023/07/19 05:24:40;;;;;;;9.57;5.93;;;18.40;99.90;;;;;;5035313;28;20190;-31
2023/07/19 05:27:06;;;;;;;6.65;5.47;;;18.50;99.90;;;;;;5050716;28;20178;-29
2023/07/19 05:29:33;;;;;;;9.00;5.47;;;18.60;99.90;;;;;;5035032;28;20202;-31
2023/07/19 05:31:59;;;;;;;8.50;5.60;;;18.70;99.90;;;;;;5051372;28;20229;-30
2023/07/19 05:34:25;;;;;;;6.97;5.75;;;18.80;99.90;;;;;;5035268;28;20213;-30
2023/07/19 05:36:51;;;;;;;6.97;5.38;;;18.90;99.90;;;;;;5051827;28;20669;-30
2023/07/19 05:39:17;;;;;;;9.23;5.82;;;19.00;99.90;;;;;;5051490;28;20202;-31
2023/07/19 05:41:43;;;;;;;10.85;5.85;;;19.20;99.90;;;;;;5051708;28;20178;-31
2023/07/19 05:44:08;;;;;;;11.35;5.78;;;19.30;99.90;;;;;;5053383;28;20178;-31
2023/07/19 05:46:37;;;;;;;9.38;6.03;;;19.50;99.90;;;;;;5066944;28;20177;-30
2023/07/19 05:49:03;;;;;;;11.23;6.28;;;19.60;99.90;;;;;;5054734;28;20268;-30
2023/07/19 05:51:30;;;;;;;8.95;5.05;;;19.80;99.90;;;;;;5054370;28;20205;-32
2023/07/19 05:53:55;;;;;;;6.93;5.70;;;19.90;99.90;;;;;;5070721;28;20189;-30
2023/07/19 05:56:22;;;;;;;8.55;5.75;;;20.00;99.90;;;;;;5050677;28;20210;-31
2023/07/19 05:58:48;;;;;;;8.77;5.70;;;20.00;99.90;;;;;;5084612;28;20210;-29
2023/07/19 06:01:17;;;;;;;9.20;5.63;;;20.00;99.90;;;;;;5084361;28;20178;-31
2023/07/19 06:03:44;;;;;;;7.22;5.22;;;20.10;99.90;;;;;;5067839;28;20242;-30
2023/07/19 06:06:10;;;;;;;10.32;5.30;;;20.20;99.90;;;;;;5084359;28;20185;-30
2023/07/19 06:08:36;;;;;;;7.57;5.65;;;20.30;99.90;;;;;;5084525;28;20205;-30
2023/07/19 06:11:02;;;;;;;9.35;5.53;;;20.40;99.90;;;;;;5084091;28;20194;-31
2023/07/19 06:13:28;;;;;;;6.38;5.65;;;20.50;99.90;;;;;;5084404;28;20188;-31
2023/07/19 06:15:56;;;;;;;7.93;6.13;;;20.70;99.90;;;;;;5083965;28;20193;-30
2023/07/19 06:18:23;;;;;;;10.65;6.05;;;20.80;99.90;;;;;;5084342;28;20198;-31
2023/07/19 06:20:49;;;;;;;8.25;6.07;;;21.00;99.90;;;;;;5084319;28;20174;-31
2023/07/19 06:23:15;;;;;;;10.27;6.28;;;21.10;99.90;;;;;;5050520;28;20182;-31
2023/07/19 06:25:41;;;;;;;8.57;6.32;;;21.30;99.90;;;;;;5050331;28;20178;-30
2023/07/19 06:28:07;;;;;;;8.60;5.95;;;21.40;99.90;;;;;;5033470;28;20205;-31
2023/07/19 06:30:33;;;;;;;8.07;6.22;;;21.50;99.90;;;;;;5049689;28;20189;-31
2023/07/19 06:32:58;;;;;;;9.32;6.40;;;21.60;99.90;;;;;;5033134;28;20209;-32
2023/07/19 06:35:24;;;;;;;10.77;6.78;;;21.70;99.90;;;;;;5033241;28;20259;-31
2023/07/19 06:37:50;;;;;;;10.32;6.28;;;21.80;99.90;;;;;;5033763;28;20335;-31
2023/07/19 06:40:16;;;;;;;10.40;6.10;;;21.90;99.90;;;;;;5033828;28;20174;-30
2023/07/19 06:42:45;;;;;;;8.00;6.38;;;22.00;99.90;;;;;;5033676;28;20182;-29
2023/07/19 06:45:11;;;;;;;8.38;5.82;;;22.10;99.90;;;;;;5050422;28;20174;-31
2023/07/19 06:47:37;;;;;;;6.78;5.63;;;22.20;99.90;;;;;;5050276;28;20184;-30
2023/07/19 06:50:03;;;;;;;7.97;5.13;;;22.30;99.90;;;;;;5033821;28;20189;-30
2023/07/19 06:52:28;;;;;;;8.13;4.68;;;22.50;99.90;;;;;;5033371;28;20210;-31
2023/07/19 06:54:55;;;;;;;6.25;4.70;;;22.60;99.90;;;;;;5050075;28;20185;-31
2023/07/19 06:57:21;;;;;;;6.40;4.65;;;22.70;99.90;;;;;;5033062;28;20193;-30
2023/07/19 06:59:49;;;;;;;7.45;4.65;;;22.90;99.90;;;;;;5032637;28;20197;-31
2023/07/19 07:02:18;;;;;;;5.30;4.25;;;23.10;99.90;;;;;;5049937;28;20186;-31
2023/07/19 07:04:45;;;;;;;7.40;4.57;;;23.20;99.90;;;;;;5033493;28;20254;-31
2023/07/19 07:07:11;;;;;;;7.72;4.60;;;23.30;99.90;;;;;;5033089;28;20181;-31
2023/07/19 07:09:37;;;;;;;7.93;4.15;;;23.40;99.90;;;;;;5049758;28;20206;-30
2023/07/19 07:12:04;;;;;;;6.30;4.22;;;23.60;99.90;;;;;;5048260;28;20271;-31
2023/07/19 07:14:30;;;;;;;4.45;3.80;;;23.70;99.90;;;;;;5032997;28;20288;-31
2023/07/19 07:16:56;;;;;;;5.80;3.90;;;23.80;99.90;;;;;;5049936;28;20280;-31
2023/07/19 07:19:22;;;;;;;4.07;3.65;;;24.00;99.90;;;;;;5033046;28;20292;-31
2023/07/19 07:21:47;;;;;;;12.63;3.88;;;24.10;99.90;;;;;;5049298;28;20177;-31
2023/07/19 07:24:13;;;;;;;6.05;3.20;;;24.10;99.90;;;;;;5049341;28;20271;-31
2023/07/19 07:26:39;;;;;;;7.82;3.80;;;24.30;99.90;;;;;;5032779;28;20239;-32
2023/07/19 07:29:05;;;;;;;5.63;3.60;;;24.40;99.90;;;;;;5032833;28;20206;-31
2023/07/19 07:31:32;;;;;;;5.78;3.80;;;24.40;99.90;;;;;;5033428;28;20210;-31
2023/07/19 07:33:58;;;;;;;5.03;3.72;;;24.50;99.90;;;;;;5033017;28;20174;-31
2023/07/19 07:36:24;;;;;;;4.78;3.38;;;24.70;99.90;;;;;;5032593;28;20183;-31
2023/07/19 07:38:50;;;;;;;5.22;3.50;;;24.90;99.90;;;;;;5049311;28;20221;-31
2023/07/19 07:41:16;;;;;;;4.82;2.90;;;25.00;99.90;;;;;;5032911;28;20240;-31
2023/07/19 07:43:42;;;;;;;7.47;3.05;;;25.10;99.90;;;;;;5049616;28;20170;-31
2023/07/19 07:46:08;;;;;;;4.22;3.05;;;25.10;99.90;;;;;;5032563;28;20178;-31
2023/07/19 07:48:35;;;;;;;4.65;2.90;;;25.10;99.90;;;;;;5049440;28;20207;-31
2023/07/19 07:51:00;;;;;;;5.28;2.60;;;25.20;99.90;;;;;;5032614;28;20182;-31
2023/07/19 07:53:26;;;;;;;5.70;2.60;;;25.20;99.90;;;;;;5050294;28;20440;-31
2023/07/19 07:55:53;;;;;;;4.38;2.50;;;25.20;99.90;;;;;;5049351;28;20178;-32
2023/07/19 07:58:19;;;;;;;6.45;2.47;;;25.30;99.90;;;;;;5032671;28;20202;-31
2023/07/19 08:00:45;;;;;;;4.65;2.50;;;25.30;99.90;;;;;;5032572;28;20227;-32
2023/07/19 08:03:11;;;;;;;3.90;2.60;;;25.30;99.90;;;;;;5032607;28;20174;-31
2023/07/19 08:05:38;;;;;;;3.75;2.35;;;25.40;99.90;;;;;;5032612;28;20182;-32
2023/07/19 08:08:05;;;;;;;7.50;2.80;;;25.50;99.90;;;;;;5048965;28;20202;-31
2023/07/19 08:10:32;;;;;;;4.25;2.40;;;25.50;99.90;;;;;;5049550;28;20185;-31
2023/07/19 08:12:58;;;;;;;3.63;2.53;;;25.70;99.90;;;;;;5048987;28;20209;-31
2023/07/19 08:15:24;;;;;;;6.35;2.75;;;25.90;99.90;;;;;;5050101;28;20239;-31
2023/07/19 08:17:52;;;;;;;2.92;2.38;;;26.10;99.90;;;;;;5032049;28;20277;-31
2023/07/19 08:20:18;;;;;;;3.55;2.13;;;26.10;99.90;;;;;;5049180;28;20274;-31
2023/07/19 08:22:43;;;;;;;4.05;2.45;;;26.20;99.90;;;;;;5031661;28;20292;-31
2023/07/19 08:25:09;;;;;;;5.13;2.50;;;26.40;99.90;;;;;;5032256;28;20239;-31
2023/07/19 08:27:35;;;;;;;5.40;2.47;;;26.60;99.90;;;;;;5032258;28;20194;-31
2023/07/19 08:30:08;;;;;;;3.88;2.25;;;26.80;99.90;;;;;;5032490;28;20194;-32
2023/07/19 08:32:34;;;;;;;4.53;2.50;;;26.90;99.90;;;;;;5032427;28;20217;-31
2023/07/19 08:35:03;;;;;;;5.40;2.40;;;27.10;99.90;;;;;;5049199;28;20178;-31
2023/07/19 08:37:29;;;;;;;3.15;1.95;;;27.30;99.90;;;;;;5047922;28;20181;-31
2023/07/19 08:39:55;;;;;;;4.20;2.10;;;27.40;99.90;;;;;;5032278;28;20198;-31
2023/07/19 08:42:20;;;;;;;5.18;2.22;;;27.50;99.90;;;;;;5045809;28;20186;-32
2023/07/19 08:44:48;;;;;;;6.10;2.45;;;27.60;99.90;;;;;;5040875;28;20218;-32
2023/07/19 08:47:16;;;;;;;3.15;2.10;;;27.70;99.90;;;;;;5031258;28;20193;-31
2023/07/19 08:49:42;;;;;;;3.63;2.13;;;27.70;99.90;;;;;;5051988;28;20225;-32
2023/07/19 08:52:08;;;;;;;4.65;2.08;;;27.80;99.90;;;;;;5048965;28;20205;-31
2023/07/19 08:54:34;;;;;;;5.05;2.05;;;27.90;99.90;;;;;;5050712;28;20182;-32
2023/07/19 08:57:04;;;;;;;4.45;1.83;;;28.10;99.90;;;;;;5051263;28;20213;-31
2023/07/19 08:59:30;;;;;;;4.78;2.33;;;28.10;99.90;;;;;;5050414;28;20198;-31
2023/07/19 09:01:56;;;;;;;4.50;2.03;;;28.10;99.90;;;;;;5049660;28;20194;-33
2023/07/19 09:04:22;;;;;;;3.78;1.98;;;28.30;99.90;;;;;;5050908;28;20205;-31
2023/07/19 09:06:49;;;;;;;4.32;1.95;;;28.30;99.90;;;;;;5030780;28;20174;-31
2023/07/19 09:09:17;;;;;;;4.85;2.20;;;28.30;99.90;;;;;;5049564;28;20206;-32
2023/07/19 09:11:49;;;;;;;3.72;1.90;;;28.20;99.90;;;;;;5031778;28;20202;-31
2023/07/19 09:14:15;;;;;;;5.95;2.20;;;28.00;99.90;;;;;;5048513;28;20237;-31
2023/07/19 09:16:41;;;;;;;4.97;2.25;;;28.10;99.90;;;;;;5048459;28;20266;-31
2023/07/19 09:19:08;;;;;;;5.50;2.20;;;28.30;99.90;;;;;;5048397;28;20194;-31
2023/07/19 09:21:46;;;;;;;6.15;2.20;;;28.40;99.90;;;;;;5031500;28;20182;-31
2023/07/19 09:24:12;;;;;;;3.17;2.28;;;28.40;99.90;;;;;;5051624;28;20227;-31
2023/07/19 09:26:53;;;;;;;4.80;2.17;;;28.50;99.90;;;;;;5035035;28;20182;-31
2023/07/19 09:29:20;;;;;;;5.00;2.30;;;28.40;99.90;;;;;;5051476;28;20206;-31
2023/07/19 09:31:58;;;;;;;3.78;2.45;;;28.30;99.90;;;;;;5051471;28;20234;-31
2023/07/19 09:34:42;;;;;;;4.50;2.25;;;28.40;99.90;;;;;;5034860;28;20239;-32
2023/07/19 09:37:09;;;;;;;3.88;2.22;;;28.40;99.90;;;;;;5052716;28;20181;-32
2023/07/19 09:39:35;;;;;;;7.60;2.60;;;28.40;99.90;;;;;;5034809;28;20204;-31
2023/07/19 09:42:03;;;;;;;6.57;2.75;;;28.40;99.90;;;;;;5034514;28;20182;-31
2023/07/19 09:44:30;;;;;;;6.65;2.83;;;28.20;99.90;;;;;;5051194;28;20186;-31
2023/07/19 09:46:57;;;;;;;5.43;3.15;;;28.10;99.90;;;;;;5034175;28;20186;-31
2023/07/19 09:49:23;;;;;;;5.38;2.78;;;27.90;99.90;;;;;;5034509;28;20194;-31
2023/07/19 09:51:51;;;;;;;4.45;2.55;;;27.80;99.90;;;;;;5034267;28;20206;-32
2023/07/19 09:54:17;;;;;;;5.00;2.40;;;27.80;99.90;;;;;;5034274;28;20191;-32
2023/07/19 09:56:44;;;;;;;3.72;2.63;;;27.70;99.90;;;;;;5050863;28;20177;-31
2023/07/19 09:59:24;;;;;;;6.18;3.05;;;27.70;99.90;;;;;;5033340;28;20197;-31
2023/07/19 10:01:51;;;;;;;6.65;2.97;;;27.60;99.90;;;;;;5034483;28;20208;-31
2023/07/19 10:04:26;;;;;;;3.33;3.00;;;27.60;99.90;;;;;;5034141;28;20215;-31
2023/07/19 10:07:07;;;;;;;4.45;3.00;;;27.60;99.90;;;;;;5034262;28;20181;-31
2023/07/19 10:09:36;;;;;;;6.55;3.33;;;27.50;99.90;;;;;;5034049;28;20197;-31
2023/07/19 10:12:08;;;;;;;4.25;3.00;;;27.50;99.90;;;;;;5050135;28;20224;-31
2023/07/19 10:14:34;;;;;;;6.45;2.95;;;27.60;99.90;;;;;;5033425;28;20276;-30
2023/07/19 10:17:03;;;;;;;5.45;3.10;;;27.70;99.90;;;;;;5033987;28;20181;-31
2023/07/19 10:19:29;;;;;;;4.63;2.78;;;27.90;99.90;;;;;;5050997;28;20194;-31
2023/07/19 10:22:05;;;;;;;5.20;3.20;;;27.90;99.90;;;;;;5050434;28;20246;-31
2023/07/19 10:24:37;;;;;;;8.65;3.22;;;27.90;99.90;;;;;;5034390;28;20190;-31
2023/07/19 10:27:06;;;;;;;5.55;2.97;;;28.10;99.90;;;;;;5050113;28;20182;-31
2023/07/19 10:29:39;;;;;;;4.57;3.10;;;28.30;99.90;;;;;;5050224;28;20198;-31
2023/07/19 10:32:07;;;;;;;5.10;3.22;;;28.50;99.90;;;;;;5039692;28;20212;-32
2023/07/19 10:34:33;;;;;;;4.50;2.85;;;28.80;99.90;;;;;;5059771;28;20174;-31
2023/07/19 10:37:04;;;;;;;3.58;3.17;;;29.00;99.90;;;;;;5045283;28;20210;-31
2023/07/19 10:39:31;;;;;;;4.95;3.10;;;29.10;99.90;;;;;;5038556;28;20280;-33
2023/07/19 10:41:57;;;;;;;6.40;3.10;;;28.90;99.90;;;;;;5051060;28;20235;-30
2023/07/19 10:44:26;;;;;;;3.40;2.90;;;29.00;99.90;;;;;;5040660;28;20274;-30
2023/07/19 10:46:55;;;;;;;5.22;3.22;;;29.30;99.90;;;;;;5030186;28;20182;-30
2023/07/19 10:49:24;;;;;;;4.35;2.70;;;29.50;99.90;;;;;;5049055;28;20252;-31
2023/07/19 10:51:52;;;;;;;3.95;2.78;;;29.80;99.90;;;;;;5048579;28;20206;-32
2023/07/19 10:54:19;;;;;;;3.50;3.00;;;29.90;99.90;;;;;;5050129;28;20196;-30
2023/07/19 10:56:48;;;;;;;5.20;3.03;;;29.70;99.90;;;;;;5049953;28;20178;-30
2023/07/19 10:59:14;;;;;;;5.65;2.97;;;29.40;99.90;;;;;;5041492;28;20202;-30
2023/07/19 11:01:40;;;;;;;6.72;3.53;;;29.00;99.90;;;;;;5029383;28;20239;-30
2023/07/19 11:04:07;;;;;;;5.00;2.97;;;29.00;99.90;;;;;;5043746;28;20240;-29
2023/07/19 11:06:36;;;;;;;5.18;3.55;;;29.00;99.90;;;;;;5047300;28;20209;-31
2023/07/19 11:09:03;;;;;;;5.22;3.15;;;29.00;99.90;;;;;;5046601;28;20210;-31
2023/07/19 11:11:29;;;;;;;4.35;3.22;;;29.20;99.90;;;;;;5051672;28;20202;-31
2023/07/19 11:13:55;;;;;;;4.25;3.08;;;29.40;99.90;;;;;;5059104;28;20181;-30
2023/07/19 11:16:25;;;;;;;5.90;3.30;;;29.30;99.90;;;;;;5047107;28;20194;-30
2023/07/19 11:18:53;;;;;;;5.03;3.40;;;28.90;99.90;;;;;;5045414;28;20202;-30
2023/07/19 11:21:28;;;;;;;3.47;3.17;;;28.70;99.90;;;;;;5029900;28;20189;-31
2023/07/19 11:23:57;;;;;;;6.07;3.35;;;28.80;99.90;;;;;;5039531;28;20189;-31
2023/07/19 11:26:23;;;;;;;5.03;3.50;;;29.00;99.90;;;;;;5048573;28;20178;-30
2023/07/19 11:28:55;;;;;;;3.20;2.90;;;29.20;99.90;;;;;;5034928;28;20197;-30
2023/07/19 11:31:35;;;;;;;3.40;3.10;;;29.30;99.90;;;;;;5052540;28;20177;-31
2023/07/19 11:34:13;;;;;;;4.88;3.47;;;29.50;99.90;;;;;;5067735;28;20283;-30
2023/07/19 11:36:46;;;;;;;5.07;3.35;;;29.60;99.90;;;;;;5056803;28;20239;-31
2023/07/19 11:39:20;;;;;;;5.53;3.50;;;29.70;99.90;;;;;;5037169;28;20300;-31
2023/07/19 11:41:47;;;;;;;7.82;3.60;;;29.90;99.90;;;;;;5053651;28;20185;-31
2023/07/19 11:44:14;;;;;;;6.45;3.50;;;30.30;99.90;;;;;;5044149;28;20272;-31
2023/07/19 11:46:39;;;;;;;4.82;3.30;;;30.30;99.00;;;;;;5047295;28;20165;-31
2023/07/19 11:49:09;;;;;;;4.53;3.63;;;30.30;99.70;;;;;;5042585;28;20258;-30
2023/07/19 11:51:39;;;;;;;4.25;3.30;;;30.20;98.90;;;;;;5054460;28;20197;-31
2023/07/19 11:54:05;;;;;;;7.10;3.70;;;30.30;98.80;;;;;;5057608;28;20173;-30
2023/07/19 11:56:31;;;;;;;5.90;3.63;;;30.20;98.40;;;;;;5054347;28;20169;-31
2023/07/19 11:58:57;;;;;;;5.60;3.38;;;30.10;99.00;;;;;;5037325;28;20205;-31
2023/07/19 12:01:27;;;;;;;5.18;3.45;;;30.10;98.00;;;;;;5054624;28;20226;-31
2023/07/19 12:03:53;;;;;;;5.60;3.42;;;30.10;98.30;;;;;;5053821;28;20248;-32
2023/07/19 12:06:18;;;;;;;5.85;3.88;;;30.20;98.70;;;;;;5056966;28;20261;-31
2023/07/19 12:08:45;;;;;;;4.38;3.85;;;30.40;98.50;;;;;;5055973;28;20197;-30
2023/07/19 12:11:11;;;;;;;4.72;3.83;;;30.70;99.50;;;;;;5033779;28;20189;-31
2023/07/19 12:13:38;;;;;;;6.78;4.60;;;31.10;98.70;;;;;;5049667;28;20193;-31
2023/07/19 12:16:04;;;;;;;6.72;3.83;;;31.30;97.40;;;;;;5047486;28;20207;-30
2023/07/19 12:18:30;;;;;;;4.55;3.63;;;31.30;98.00;;;;;;5042733;28;20201;-31
2023/07/19 12:20:57;;;;;;;5.40;3.53;;;31.20;96.80;;;;;;5032420;28;20202;-32
2023/07/19 12:23:24;;;;;;;4.05;3.50;;;31.00;96.70;;;;;;5051856;28;20189;-32
2023/07/19 12:25:50;;;;;;;6.22;3.70;;;31.00;97.10;;;;;;5032761;28;20225;-30
2023/07/19 12:28:22;;;;;;;8.00;3.60;;;31.00;96.70;;;;;;5051277;28;20213;-29
2023/07/19 12:30:52;;;;;;;6.15;3.33;;;30.70;96.50;;;;;;5053326;28;20181;-30
2023/07/19 12:33:19;;;;;;;5.97;3.65;;;30.60;96.00;;;;;;5052481;28;20202;-29
2023/07/19 12:35:47;;;;;;;5.32;3.33;;;30.30;97.80;;;;;;5052270;28;20724;-31
2023/07/19 12:38:14;;;;;;;4.00;3.53;;;30.30;99.00;;;;;;5019181;28;20301;-28
2023/07/19 12:40:41;;;;;;;6.25;3.60;;;30.30;97.60;;;;;;5051877;28;20208;-30
2023/07/19 12:43:08;;;;;;;4.13;3.40;;;30.00;98.00;;;;;;5052160;28;20190;-29
2023/07/19 12:45:36;;;;;;;3.88;3.47;;;30.00;98.00;;;;;;5050037;28;20228;-30